This is the latest recevied weather packets stored in our database for station/object DD6UBW. If no packets are shown the sender has not sent any weather packets the latest 10 day(s).
| Time | Temp. | Humidity | Pressure | Rain* | Wind** | Luminosity | Snow |
|---|---|---|---|---|---|---|---|
| 1777577404 | 12.22° C | 58% | 1028.6 hPa | 0 mm | - | - | - |
| 1777575602 | 13.89° C | 54% | 1027.6 hPa | 0 mm | - | - | - |
| 1777573801 | 15.56° C | 47% | 1027.6 hPa | 0 mm | - | - | - |
| 1777572001 | 17.22° C | 42% | 1027.6 hPa | 0 mm | - | - | - |
| 1777570201 | 17.78° C | 40% | 1027.6 hPa | 0 mm | - | - | - |
| 1777568401 | 18.33° C | 38% | 1027.6 hPa | 0 mm | - | - | - |
| 1777566601 | 18.89° C | 37% | 1027.6 hPa | 0 mm | - | - | - |
| 1777564800 | 20° C | 35% | 1027.6 hPa | 0 mm | - | - | - |
| 1777563001 | 19.44° C | 35% | 1028.6 hPa | 0 mm | - | - | - |
| 1777561201 | 19.44° C | 35% | 1028.6 hPa | 0 mm | - | - | - |
| 1777557602 | 19.44° C | 34% | 1028.6 hPa | 0 mm | - | - | - |
| 1777555801 | 19.44° C | 34% | 1028.6 hPa | 0 mm | - | - | - |
| 1777554001 | 19.44° C | 34% | 1029.6 hPa | 0 mm | - | - | - |
| 1777552201 | 18.89° C | 34% | 1029.6 hPa | 0 mm | - | - | - |
| 1777550401 | 18.33° C | 35% | 1029.6 hPa | 0 mm | - | - | - |
| 1777548601 | 18.33° C | 35% | 1030.6 hPa | 0 mm | - | - | - |
| 1777546803 | 18.33° C | 34% | 1030.6 hPa | 0 mm | - | - | - |
| 1777545002 | 18.33° C | 35% | 1030.6 hPa | 0 mm | - | - | - |
| 1777543202 | 16.67° C | 36% | 1031.6 hPa | 0 mm | - | - | - |
| 1777541401 | 16.11° C | 37% | 1031.6 hPa | 0 mm | - | - | - |
| 1777539601 | 15.56° C | 38% | 1031.6 hPa | 0 mm | - | - | - |
| 1777537801 | 14.44° C | 40% | 1031.6 hPa | 0 mm | - | - | - |
| 1777536001 | 13.89° C | 41% | 1031.6 hPa | 0 mm | - | - | - |
| 1777534202 | 12.22° C | 46% | 1031.6 hPa | 0 mm | - | - | - |
| 1777532402 | 11.11° C | 50% | 1031.6 hPa | 0 mm | - | - | - |
* Rain since midnight (hover to see other rain measurements)
** Current wind speed in m/s (hover to see current wind gust speed)